sensor_id;sensor_type;location;lat;lon;timestamp;temperature;humidity
70762;DHT22;58360;0.000;0.000;2022-12-24T00:00:06;12.00;86.40
70762;DHT22;58360;0.000;0.000;2022-12-24T00:02:31;12.00;85.70
70762;DHT22;58360;0.000;0.000;2022-12-24T00:04:57;12.10;85.70
70762;DHT22;58360;0.000;0.000;2022-12-24T00:10:52;12.10;85.60
70762;DHT22;58360;0.000;0.000;2022-12-24T00:13:18;12.10;85.40
70762;DHT22;58360;0.000;0.000;2022-12-24T00:15:44;11.90;85.50
70762;DHT22;58360;0.000;0.000;2022-12-24T00:18:23;11.90;85.70
70762;DHT22;58360;0.000;0.000;2022-12-24T00:24:32;11.80;85.70
70762;DHT22;58360;0.000;0.000;2022-12-24T00:30:21;11.70;86.40
70762;DHT22;58360;0.000;0.000;2022-12-24T00:36:15;11.60;86.80
70762;DHT22;58360;0.000;0.000;2022-12-24T00:42:02;11.80;86.50
70762;DHT22;58360;0.000;0.000;2022-12-24T00:44:28;11.70;86.70
70762;DHT22;58360;0.000;0.000;2022-12-24T00:46:54;11.80;86.30
70762;DHT22;58360;0.000;0.000;2022-12-24T00:49:19;11.90;86.30
70762;DHT22;58360;0.000;0.000;2022-12-24T00:51:45;11.80;86.10
70762;DHT22;58360;0.000;0.000;2022-12-24T00:54:12;11.90;85.80
70762;DHT22;58360;0.000;0.000;2022-12-24T00:56:38;11.90;85.70
70762;DHT22;58360;0.000;0.000;2022-12-24T00:59:04;11.90;86.10
70762;DHT22;58360;0.000;0.000;2022-12-24T01:01:47;11.80;86.70
70762;DHT22;58360;0.000;0.000;2022-12-24T01:04:13;11.90;85.70
70762;DHT22;58360;0.000;0.000;2022-12-24T01:07:00;12.00;85.90
70762;DHT22;58360;0.000;0.000;2022-12-24T01:12:48;12.10;85.50
70762;DHT22;58360;0.000;0.000;2022-12-24T01:15:14;12.10;86.60
70762;DHT22;58360;0.000;0.000;2022-12-24T01:17:40;12.10;86.40
70762;DHT22;58360;0.000;0.000;2022-12-24T01:20:07;12.10;86.60
70762;DHT22;58360;0.000;0.000;2022-12-24T01:22:34;12.00;87.00
70762;DHT22;58360;0.000;0.000;2022-12-24T01:28:07;12.10;86.20
70762;DHT22;58360;0.000;0.000;2022-12-24T01:30:54;12.10;85.80
70762;DHT22;58360;0.000;0.000;2022-12-24T01:33:19;12.10;85.90
70762;DHT22;58360;0.000;0.000;2022-12-24T01:35:45;12.10;86.30
70762;DHT22;58360;0.000;0.000;2022-12-24T01:38:12;12.00;86.70
70762;DHT22;58360;0.000;0.000;2022-12-24T01:44:24;12.00;86.90
70762;DHT22;58360;0.000;0.000;2022-12-24T01:50:20;11.90;87.20
70762;DHT22;58360;0.000;0.000;2022-12-24T01:59:43;11.90;87.50
70762;DHT22;58360;0.000;0.000;2022-12-24T02:02:30;11.90;87.80
70762;DHT22;58360;0.000;0.000;2022-12-24T02:11:18;11.90;87.40
70762;DHT22;58360;0.000;0.000;2022-12-24T02:23:52;12.00;88.50
70762;DHT22;58360;0.000;0.000;2022-12-24T02:39:14;11.70;91.40
70762;DHT22;58360;0.000;0.000;2022-12-24T02:45:25;11.60;91.70
70762;DHT22;58360;0.000;0.000;2022-12-24T02:47:52;11.60;91.70
70762;DHT22;58360;0.000;0.000;2022-12-24T02:53:22;11.70;91.30
70762;DHT22;58360;0.000;0.000;2022-12-24T03:11:29;11.60;90.80
70762;DHT22;58360;0.000;0.000;2022-12-24T03:18:47;11.50;91.00
70762;DHT22;58360;0.000;0.000;2022-12-24T03:21:33;11.50;90.90
70762;DHT22;58360;0.000;0.000;2022-12-24T03:24:00;11.60;90.90
70762;DHT22;58360;0.000;0.000;2022-12-24T03:26:28;11.60;90.80
70762;DHT22;58360;0.000;0.000;2022-12-24T03:29:28;11.60;90.90
70762;DHT22;58360;0.000;0.000;2022-12-24T03:35:18;11.60;91.30
70762;DHT22;58360;0.000;0.000;2022-12-24T03:38:05;11.60;90.90
70762;DHT22;58360;0.000;0.000;2022-12-24T03:40:30;11.70;90.60
70762;DHT22;58360;0.000;0.000;2022-12-24T03:42:56;11.60;90.90
70762;DHT22;58360;0.000;0.000;2022-12-24T03:45:41;11.70;90.50
70762;DHT22;58360;0.000;0.000;2022-12-24T03:48:06;11.80;90.10
70762;DHT22;58360;0.000;0.000;2022-12-24T03:50:32;11.80;90.10
70762;DHT22;58360;0.000;0.000;2022-12-24T03:52:58;11.80;90.20
70762;DHT22;58360;0.000;0.000;2022-12-24T03:55:46;11.80;90.20
70762;DHT22;58360;0.000;0.000;2022-12-24T04:01:50;11.80;90.10
70762;DHT22;58360;0.000;0.000;2022-12-24T04:04:18;11.80;90.20
70762;DHT22;58360;0.000;0.000;2022-12-24T04:06:44;11.80;90.10
70762;DHT22;58360;0.000;0.000;2022-12-24T04:09:10;11.90;89.80
70762;DHT22;58360;0.000;0.000;2022-12-24T04:11:42;11.90;89.70
70762;DHT22;58360;0.000;0.000;2022-12-24T04:17:31;11.90;89.40
70762;DHT22;58360;0.000;0.000;2022-12-24T04:23:30;11.90;89.90
70762;DHT22;58360;0.000;0.000;2022-12-24T04:25:59;11.90;89.70
70762;DHT22;58360;0.000;0.000;2022-12-24T04:28:24;11.90;88.90
70762;DHT22;58360;0.000;0.000;2022-12-24T04:31:00;11.90;89.30
70762;DHT22;58360;0.000;0.000;2022-12-24T04:47:13;11.80;88.80
70762;DHT22;58360;0.000;0.000;2022-12-24T04:56:30;11.70;88.80
70762;DHT22;58360;0.000;0.000;2022-12-24T05:05:45;11.40;89.70
70762;DHT22;58360;0.000;0.000;2022-12-24T05:08:12;11.40;90.00
70762;DHT22;58360;0.000;0.000;2022-12-24T05:10:37;11.40;89.50
70762;DHT22;58360;0.000;0.000;2022-12-24T05:13:03;11.50;89.50
70762;DHT22;58360;0.000;0.000;2022-12-24T05:15:29;11.60;88.70
70762;DHT22;58360;0.000;0.000;2022-12-24T05:17:55;11.50;89.10
70762;DHT22;58360;0.000;0.000;2022-12-24T05:20:30;11.40;89.50
70762;DHT22;58360;0.000;0.000;2022-12-24T05:22:56;11.40;89.40
70762;DHT22;58360;0.000;0.000;2022-12-24T05:25:40;11.40;89.40
70762;DHT22;58360;0.000;0.000;2022-12-24T05:28:24;11.50;89.00
70762;DHT22;58360;0.000;0.000;2022-12-24T05:30:51;11.40;89.00
70762;DHT22;58360;0.000;0.000;2022-12-24T05:33:18;11.50;88.70
70762;DHT22;58360;0.000;0.000;2022-12-24T05:35:43;11.50;89.00
70762;DHT22;58360;0.000;0.000;2022-12-24T05:38:09;11.50;88.70
70762;DHT22;58360;0.000;0.000;2022-12-24T05:44:36;11.40;88.90
70762;DHT22;58360;0.000;0.000;2022-12-24T05:50:24;11.30;89.30
70762;DHT22;58360;0.000;0.000;2022-12-24T05:52:50;11.30;89.10
70762;DHT22;58360;0.000;0.000;2022-12-24T05:55:15;11.30;89.20
70762;DHT22;58360;0.000;0.000;2022-12-24T05:57:41;11.40;88.70
70762;DHT22;58360;0.000;0.000;2022-12-24T06:04:59;11.20;89.90
70762;DHT22;58360;0.000;0.000;2022-12-24T06:07:25;11.20;90.00
70762;DHT22;58360;0.000;0.000;2022-12-24T06:09:51;11.20;89.40
70762;DHT22;58360;0.000;0.000;2022-12-24T06:12:18;11.30;89.10
70762;DHT22;58360;0.000;0.000;2022-12-24T06:17:49;11.20;89.20
70762;DHT22;58360;0.000;0.000;2022-12-24T06:20:15;11.10;89.70
70762;DHT22;58360;0.000;0.000;2022-12-24T06:26:04;11.20;89.20
70762;DHT22;58360;0.000;0.000;2022-12-24T06:28:51;11.30;89.30
70762;DHT22;58360;0.000;0.000;2022-12-24T06:31:20;11.30;89.20
70762;DHT22;58360;0.000;0.000;2022-12-24T06:33:46;11.20;89.60
70762;DHT22;58360;0.000;0.000;2022-12-24T06:36:30;11.30;89.80
70762;DHT22;58360;0.000;0.000;2022-12-24T06:45:45;11.30;90.50
70762;DHT22;58360;0.000;0.000;2022-12-24T06:48:11;11.40;90.10
70762;DHT22;58360;0.000;0.000;2022-12-24T06:50:37;11.30;90.30
70762;DHT22;58360;0.000;0.000;2022-12-24T06:53:03;11.20;90.60
70762;DHT22;58360;0.000;0.000;2022-12-24T06:55:29;11.30;90.50
70762;DHT22;58360;0.000;0.000;2022-12-24T07:01:37;11.40;90.40
70762;DHT22;58360;0.000;0.000;2022-12-24T07:07:10;11.50;90.20
70762;DHT22;58360;0.000;0.000;2022-12-24T07:09:36;11.40;90.40
70762;DHT22;58360;0.000;0.000;2022-12-24T07:12:15;11.40;90.40
70762;DHT22;58360;0.000;0.000;2022-12-24T07:21:25;11.40;90.60
70762;DHT22;58360;0.000;0.000;2022-12-24T07:23:51;11.40;90.70
70762;DHT22;58360;0.000;0.000;2022-12-24T07:26:16;11.30;90.80
70762;DHT22;58360;0.000;0.000;2022-12-24T07:28:42;11.20;91.00
70762;DHT22;58360;0.000;0.000;2022-12-24T07:31:08;11.30;90.70
70762;DHT22;58360;0.000;0.000;2022-12-24T07:33:36;11.50;90.30
70762;DHT22;58360;0.000;0.000;2022-12-24T07:36:08;11.50;90.10
70762;DHT22;58360;0.000;0.000;2022-12-24T07:38:35;11.50;90.30
70762;DHT22;58360;0.000;0.000;2022-12-24T07:41:02;11.40;90.20
70762;DHT22;58360;0.000;0.000;2022-12-24T07:43:28;11.50;90.20
70762;DHT22;58360;0.000;0.000;2022-12-24T07:45:55;11.40;90.30
70762;DHT22;58360;0.000;0.000;2022-12-24T07:48:21;11.30;90.40
70762;DHT22;58360;0.000;0.000;2022-12-24T07:50:48;11.40;90.20
70762;DHT22;58360;0.000;0.000;2022-12-24T07:53:35;11.40;90.00
70762;DHT22;58360;0.000;0.000;2022-12-24T07:56:01;11.40;89.70
70762;DHT22;58360;0.000;0.000;2022-12-24T07:58:27;11.40;89.80
70762;DHT22;58360;0.000;0.000;2022-12-24T08:00:57;11.50;89.50
70762;DHT22;58360;0.000;0.000;2022-12-24T08:03:22;11.40;89.80
70762;DHT22;58360;0.000;0.000;2022-12-24T08:05:48;11.30;90.20
70762;DHT22;58360;0.000;0.000;2022-12-24T08:08:14;11.30;90.20
70762;DHT22;58360;0.000;0.000;2022-12-24T08:10:43;11.30;89.70
70762;DHT22;58360;0.000;0.000;2022-12-24T08:13:10;11.50;89.20
70762;DHT22;58360;0.000;0.000;2022-12-24T08:15:36;11.40;89.40
70762;DHT22;58360;0.000;0.000;2022-12-24T08:18:02;11.30;90.20
70762;DHT22;58360;0.000;0.000;2022-12-24T08:20:27;11.20;90.10
70762;DHT22;58360;0.000;0.000;2022-12-24T08:22:53;11.30;89.70
70762;DHT22;58360;0.000;0.000;2022-12-24T08:25:19;11.40;89.50
70762;DHT22;58360;0.000;0.000;2022-12-24T08:27:45;11.40;89.40
70762;DHT22;58360;0.000;0.000;2022-12-24T08:30:11;11.40;89.40
70762;DHT22;58360;0.000;0.000;2022-12-24T08:32:42;11.40;89.20
70762;DHT22;58360;0.000;0.000;2022-12-24T08:38:13;11.50;89.30
70762;DHT22;58360;0.000;0.000;2022-12-24T08:40:39;11.50;89.20
70762;DHT22;58360;0.000;0.000;2022-12-24T08:43:04;11.50;89.60
70762;DHT22;58360;0.000;0.000;2022-12-24T08:49:16;11.60;88.40
70762;DHT22;58360;0.000;0.000;2022-12-24T08:55:34;11.50;88.50
70762;DHT22;58360;0.000;0.000;2022-12-24T09:01:32;11.40;89.70
70762;DHT22;58360;0.000;0.000;2022-12-24T09:04:00;11.50;88.90
70762;DHT22;58360;0.000;0.000;2022-12-24T09:06:26;11.50;88.80
70762;DHT22;58360;0.000;0.000;2022-12-24T09:08:51;11.50;88.60
70762;DHT22;58360;0.000;0.000;2022-12-24T09:11:18;11.60;88.30
70762;DHT22;58360;0.000;0.000;2022-12-24T09:29:42;11.60;88.00
70762;DHT22;58360;0.000;0.000;2022-12-24T09:39:05;11.70;87.90
70762;DHT22;58360;0.000;0.000;2022-12-24T09:45:05;11.80;87.70
70762;DHT22;58360;0.000;0.000;2022-12-24T09:47:45;11.80;87.30
70762;DHT22;58360;0.000;0.000;2022-12-24T10:03:20;12.30;85.60
70762;DHT22;58360;0.000;0.000;2022-12-24T10:19:09;12.20;86.70
70762;DHT22;58360;0.000;0.000;2022-12-24T10:29:21;12.00;87.00
70762;DHT22;58360;0.000;0.000;2022-12-24T10:52:18;12.30;85.50
70762;DHT22;58360;0.000;0.000;2022-12-24T11:31:26;12.90;82.70
70762;DHT22;58360;0.000;0.000;2022-12-24T11:37:24;12.80;84.10
70762;DHT22;58360;0.000;0.000;2022-12-24T11:43:15;12.90;83.20
70762;DHT22;58360;0.000;0.000;2022-12-24T11:45:48;12.90;82.90
70762;DHT22;58360;0.000;0.000;2022-12-24T11:48:41;12.80;84.20
70762;DHT22;58360;0.000;0.000;2022-12-24T11:51:16;13.00;83.40
70762;DHT22;58360;0.000;0.000;2022-12-24T12:07:44;13.70;81.00
70762;DHT22;58360;0.000;0.000;2022-12-24T12:17:38;13.80;80.20
70762;DHT22;58360;0.000;0.000;2022-12-24T13:23:20;13.80;79.50
70762;DHT22;58360;0.000;0.000;2022-12-24T13:25:52;13.90;79.30
70762;DHT22;58360;0.000;0.000;2022-12-24T13:31:48;13.70;79.80
70762;DHT22;58360;0.000;0.000;2022-12-24T13:50:21;13.50;80.40
70762;DHT22;58360;0.000;0.000;2022-12-24T13:58:49;13.50;80.10
70762;DHT22;58360;0.000;0.000;2022-12-24T14:01:18;13.50;80.00
70762;DHT22;58360;0.000;0.000;2022-12-24T14:03:50;13.40;80.70
70762;DHT22;58360;0.000;0.000;2022-12-24T14:16:48;13.30;81.80
70762;DHT22;58360;0.000;0.000;2022-12-24T14:34:24;13.30;80.80
70762;DHT22;58360;0.000;0.000;2022-12-24T14:36:53;13.40;80.00
70762;DHT22;58360;0.000;0.000;2022-12-24T14:39:40;13.10;81.30
70762;DHT22;58360;0.000;0.000;2022-12-24T14:54:38;13.10;81.10
70762;DHT22;58360;0.000;0.000;2022-12-24T14:59:42;13.20;81.20
70762;DHT22;58360;0.000;0.000;2022-12-24T15:15:42;12.60;83.70
70762;DHT22;58360;0.000;0.000;2022-12-24T15:45:25;11.90;85.40
70762;DHT22;58360;0.000;0.000;2022-12-24T15:48:04;11.80;85.70
70762;DHT22;58360;0.000;0.000;2022-12-24T15:51:44;11.70;86.10
70762;DHT22;58360;0.000;0.000;2022-12-24T15:57:32;11.70;86.10
70762;DHT22;58360;0.000;0.000;2022-12-24T16:00:01;11.60;86.60
70762;DHT22;58360;0.000;0.000;2022-12-24T16:02:51;11.70;86.50
70762;DHT22;58360;0.000;0.000;2022-12-24T16:11:25;11.60;86.70
70762;DHT22;58360;0.000;0.000;2022-12-24T16:22:33;11.40;87.10
70762;DHT22;58360;0.000;0.000;2022-12-24T16:32:32;11.30;87.70
70762;DHT22;58360;0.000;0.000;2022-12-24T16:35:06;11.30;88.00
70762;DHT22;58360;0.000;0.000;2022-12-24T16:37:35;11.30;88.40
70762;DHT22;58360;0.000;0.000;2022-12-24T16:40:21;11.30;88.30
70762;DHT22;58360;0.000;0.000;2022-12-24T16:46:12;11.40;88.20
70762;DHT22;58360;0.000;0.000;2022-12-24T16:48:38;11.40;88.30
70762;DHT22;58360;0.000;0.000;2022-12-24T16:51:03;11.40;87.90
70762;DHT22;58360;0.000;0.000;2022-12-24T16:53:29;11.40;88.00
70762;DHT22;58360;0.000;0.000;2022-12-24T16:55:55;11.40;88.30
70762;DHT22;58360;0.000;0.000;2022-12-24T16:58:20;11.50;87.80
70762;DHT22;58360;0.000;0.000;2022-12-24T17:00:47;11.50;87.60
70762;DHT22;58360;0.000;0.000;2022-12-24T17:03:13;11.60;87.50
70762;DHT22;58360;0.000;0.000;2022-12-24T17:05:40;11.50;87.70
70762;DHT22;58360;0.000;0.000;2022-12-24T17:08:06;11.70;87.20
70762;DHT22;58360;0.000;0.000;2022-12-24T17:10:32;11.60;87.50
70762;DHT22;58360;0.000;0.000;2022-12-24T17:16:25;11.50;87.80
70762;DHT22;58360;0.000;0.000;2022-12-24T17:18:50;11.50;87.40
70762;DHT22;58360;0.000;0.000;2022-12-24T17:21:16;11.50;87.60
70762;DHT22;58360;0.000;0.000;2022-12-24T17:23:42;11.40;88.00
70762;DHT22;58360;0.000;0.000;2022-12-24T17:26:12;11.30;88.20
70762;DHT22;58360;0.000;0.000;2022-12-24T17:28:38;11.30;88.60
70762;DHT22;58360;0.000;0.000;2022-12-24T17:31:08;11.30;88.50
70762;DHT22;58360;0.000;0.000;2022-12-24T17:33:35;11.20;88.40
70762;DHT22;58360;0.000;0.000;2022-12-24T17:36:01;11.20;88.40
70762;DHT22;58360;0.000;0.000;2022-12-24T17:38:27;11.20;88.50
70762;DHT22;58360;0.000;0.000;2022-12-24T17:41:02;11.20;88.60
70762;DHT22;58360;0.000;0.000;2022-12-24T17:43:28;11.10;88.80
70762;DHT22;58360;0.000;0.000;2022-12-24T17:49:21;11.10;88.60
70762;DHT22;58360;0.000;0.000;2022-12-24T17:54:52;11.10;88.40
70762;DHT22;58360;0.000;0.000;2022-12-24T17:57:19;11.00;89.00
70762;DHT22;58360;0.000;0.000;2022-12-24T17:59:44;10.90;89.40
70762;DHT22;58360;0.000;0.000;2022-12-24T18:02:11;10.80;89.60
70762;DHT22;58360;0.000;0.000;2022-12-24T18:04:37;10.80;89.60
70762;DHT22;58360;0.000;0.000;2022-12-24T18:07:02;10.80;89.90
70762;DHT22;58360;0.000;0.000;2022-12-24T18:09:28;10.80;89.90
70762;DHT22;58360;0.000;0.000;2022-12-24T18:11:54;10.80;90.00
70762;DHT22;58360;0.000;0.000;2022-12-24T18:14:20;10.70;89.90
70762;DHT22;58360;0.000;0.000;2022-12-24T18:16:47;10.70;90.20
70762;DHT22;58360;0.000;0.000;2022-12-24T18:19:12;10.70;90.20
70762;DHT22;58360;0.000;0.000;2022-12-24T18:21:39;10.80;90.20
70762;DHT22;58360;0.000;0.000;2022-12-24T18:24:05;10.70;90.20
70762;DHT22;58360;0.000;0.000;2022-12-24T18:26:31;10.70;90.20
70762;DHT22;58360;0.000;0.000;2022-12-24T18:28:59;10.70;90.20
70762;DHT22;58360;0.000;0.000;2022-12-24T18:31:25;10.70;90.10
70762;DHT22;58360;0.000;0.000;2022-12-24T18:33:52;10.70;90.30
70762;DHT22;58360;0.000;0.000;2022-12-24T18:36:19;10.60;90.50
70762;DHT22;58360;0.000;0.000;2022-12-24T18:38:45;10.60;90.50
70762;DHT22;58360;0.000;0.000;2022-12-24T18:41:14;10.60;90.40
70762;DHT22;58360;0.000;0.000;2022-12-24T18:43:40;10.60;90.40
70762;DHT22;58360;0.000;0.000;2022-12-24T18:46:11;10.50;90.50
70762;DHT22;58360;0.000;0.000;2022-12-24T18:48:38;10.50;90.50
70762;DHT22;58360;0.000;0.000;2022-12-24T18:51:04;10.40;90.50
70762;DHT22;58360;0.000;0.000;2022-12-24T18:53:32;10.40;90.60
70762;DHT22;58360;0.000;0.000;2022-12-24T18:56:09;10.40;90.60
70762;DHT22;58360;0.000;0.000;2022-12-24T19:42:36;10.10;90.80
